Time;durP1;ratioP1;P1;durP2;ratioP2;P2;SDS_P1;SDS_P2;PMS_P1;PMS_P2;Temp;Humidity;BMP_temperature;BMP_pressure;BME280_temperature;BME280_humidity;BME280_pressure;Samples;Min_cycle;Max_cycle;Signal;HPM_P1;HPM_P2
2023/04/02 00:01:43;;;;;;;0.40;0.30;;;;;;;8.11;100.00;96035.13;5043657;28;20661;-59
2023/04/02 00:04:25;;;;;;;0.37;0.30;;;;;;;8.12;100.00;96028.88;5047577;28;20192;-59
2023/04/02 00:06:54;;;;;;;0.87;0.47;;;;;;;8.16;100.00;96030.25;5043447;28;20196;-58
2023/04/02 00:09:30;;;;;;;1.03;0.53;;;;;;;8.20;100.00;96034.25;5043765;28;20212;-59
2023/04/02 00:11:59;;;;;;;0.60;0.40;;;;;;;8.26;100.00;96033.69;5044240;28;20290;-58
2023/04/02 00:14:35;;;;;;;0.37;0.27;;;;;;;8.18;100.00;96029.16;5043590;28;20208;-57
2023/04/02 00:17:04;;;;;;;0.80;0.30;;;;;;;8.23;100.00;96031.34;5041409;28;20211;-59
2023/04/02 00:19:36;;;;;;;0.20;0.20;;;;;;;8.28;100.00;96034.38;5041955;28;20235;-59
2023/04/02 00:22:06;;;;;;;1.27;0.50;;;;;;;8.26;100.00;96038.94;5042915;28;20211;-58
2023/04/02 00:24:34;;;;;;;1.23;0.53;;;;;;;8.27;100.00;96045.88;5042073;28;20627;-59
2023/04/02 00:27:02;;;;;;;0.40;0.40;;;;;;;8.28;100.00;96035.25;5042548;28;20293;-59
2023/04/02 00:29:29;;;;;;;0.53;0.40;;;;;;;8.25;100.00;96038.16;5042322;28;20209;-60
2023/04/02 00:31:59;;;;;;;0.40;0.30;;;;;;;8.28;100.00;96031.75;5042111;28;20210;-58
2023/04/02 00:34:29;;;;;;;0.73;0.23;;;;;;;8.25;100.00;96030.25;5041665;28;20203;-58
2023/04/02 00:36:56;;;;;;;0.40;0.40;;;;;;;8.24;100.00;96028.56;5041656;28;20214;-58
2023/04/02 00:39:24;;;;;;;0.37;0.37;;;;;;;8.31;100.00;96034.97;5042066;28;20204;-58
2023/04/02 00:42:03;;;;;;;0.60;0.40;;;;;;;8.32;100.00;96035.78;5043018;28;20200;-59
2023/04/02 00:44:31;;;;;;;0.50;0.50;;;;;;;8.27;100.00;96040.63;5045470;28;20257;-58
2023/04/02 00:46:59;;;;;;;0.40;0.40;;;;;;;8.29;100.00;96036.88;5045724;28;20199;-58
2023/04/02 00:49:32;;;;;;;0.50;0.50;;;;;;;8.33;100.00;96037.44;5045023;28;20702;-59
2023/04/02 00:52:02;;;;;;;0.40;0.40;;;;;;;8.33;100.00;96037.44;5045526;28;20586;-58
2023/04/02 00:54:32;;;;;;;0.33;0.33;;;;;;;8.36;100.00;96039.81;5045351;28;20211;-58
2023/04/02 00:57:01;;;;;;;0.63;0.53;;;;;;;8.37;100.00;96038.81;5045424;28;20218;-58
2023/04/02 00:59:30;;;;;;;1.17;0.53;;;;;;;8.39;100.00;96031.59;5045367;28;20234;-57
2023/04/02 01:02:01;;;;;;;1.20;0.43;;;;;;;8.39;100.00;96027.19;5045195;28;20214;-57
2023/04/02 01:04:33;;;;;;;0.60;0.53;;;;;;;8.39;100.00;96026.34;5055525;28;20180;-59
2023/04/02 01:07:05;;;;;;;0.53;0.50;;;;;;;8.38;100.00;96022.03;5068593;28;20180;-58
2023/04/02 01:09:41;;;;;;;0.70;0.33;;;;;;;8.46;99.13;96016.88;5058254;28;20199;-58
2023/04/02 01:12:23;;;;;;;0.43;0.43;;;;;;;8.41;99.26;96016.47;5046195;28;20226;-58
2023/04/02 01:14:53;;;;;;;0.93;0.40;;;;;;;8.34;99.84;96023.28;5045005;28;20620;-58
2023/04/02 01:17:35;;;;;;;0.40;0.40;;;;;;;8.29;99.07;96025.56;5045086;28;20199;-58
2023/04/02 01:20:26;;;;;;;0.40;0.40;;;;;;;8.27;99.51;96020.38;5044515;28;20249;-58
2023/04/02 01:22:57;;;;;;;0.33;0.30;;;;;;;8.28;99.61;96018.56;5066011;28;20219;-58
2023/04/02 01:25:27;;;;;;;0.43;0.30;;;;;;;8.31;99.23;96034.97;5070227;28;20167;-59
2023/04/02 01:27:58;;;;;;;1.10;0.53;;;;;;;8.30;98.94;96032.47;5060143;28;20220;-58
2023/04/02 01:30:27;;;;;;;0.20;0.20;;;;;;;8.37;99.51;96036.16;5044415;28;20208;-58
2023/04/02 01:32:54;;;;;;;1.70;0.43;;;;;;;8.35;98.30;96030.22;5044264;28;20199;-59
2023/04/02 01:35:21;;;;;;;1.23;0.37;;;;;;;8.40;98.02;96027.97;5043987;28;20208;-58
2023/04/02 01:37:51;;;;;;;0.83;0.23;;;;;;;8.47;97.08;96034.31;5044550;28;20524;-57
2023/04/02 01:40:34;;;;;;;0.50;0.50;;;;;;;8.49;96.63;96033.22;5043770;28;20532;-58
2023/04/02 01:43:07;;;;;;;0.63;0.47;;;;;;;8.40;97.15;96034.09;5044286;28;20655;-58
2023/04/02 01:45:35;;;;;;;0.63;0.40;;;;;;;8.41;97.90;96030.47;5044231;28;20227;-57
2023/04/02 01:48:03;;;;;;;1.40;0.60;;;;;;;8.35;98.06;96032.88;5043421;28;20262;-58
2023/04/02 01:50:31;;;;;;;0.53;0.30;;;;;;;8.32;98.85;96031.34;5041623;28;20195;-59
2023/04/02 01:53:01;;;;;;;0.83;0.50;;;;;;;8.39;98.22;96036.88;5043305;28;20208;-57
2023/04/02 01:55:34;;;;;;;0.30;0.30;;;;;;;8.30;98.97;96032.47;5044423;28;20620;-58
2023/04/02 01:58:02;;;;;;;0.67;0.40;;;;;;;8.30;98.61;96033.28;5043747;28;20199;-58
2023/04/02 02:00:35;;;;;;;1.80;0.50;;;;;;;8.34;97.66;96033.84;5043933;28;20221;-59
2023/04/02 02:03:05;;;;;;;0.30;0.30;;;;;;;8.28;97.86;96037.03;5044010;28;20222;-59
2023/04/02 02:05:32;;;;;;;0.53;0.37;;;;;;;8.23;98.83;96047.13;5043865;28;20589;-59
2023/04/02 02:08:08;;;;;;;0.77;0.50;;;;;;;8.31;97.23;96042.03;5043694;28;20216;-58
2023/04/02 02:10:36;;;;;;;0.60;0.60;;;;;;;8.23;97.43;96042.72;5044199;28;20211;-58
2023/04/02 02:13:03;;;;;;;0.30;0.30;;;;;;;8.15;98.34;96041.78;5044335;28;20195;-58
2023/04/02 02:15:32;;;;;;;0.70;0.60;;;;;;;8.10;98.80;96041.38;5043648;28;20227;-60
2023/04/02 02:18:01;;;;;;;0.50;0.30;;;;;;;8.01;99.84;96048.31;5042782;28;20191;-58
2023/04/02 02:20:29;;;;;;;0.47;0.30;;;;;;;7.97;99.70;96045.13;5043601;28;20241;-58
2023/04/02 02:22:56;;;;;;;0.93;0.43;;;;;;;7.93;98.20;96045.56;5043455;28;20556;-58
2023/04/02 02:25:28;;;;;;;0.60;0.50;;;;;;;7.88;99.31;96047.78;5043395;28;20214;-59
2023/04/02 02:28:00;;;;;;;0.93;0.23;;;;;;;7.84;99.84;96046.41;5042881;28;20223;-59
2023/04/02 02:30:31;;;;;;;0.40;0.40;;;;;;;7.78;99.82;96042.53;5042968;28;20643;-58
2023/04/02 02:33:05;;;;;;;0.73;0.33;;;;;;;7.75;100.00;96047.25;5043276;28;20199;-57
2023/04/02 02:35:39;;;;;;;0.20;0.20;;;;;;;7.66;100.00;96046.28;5043474;28;20582;-59
2023/04/02 02:38:36;;;;;;;0.20;0.20;;;;;;;7.58;100.00;96056.66;5043060;28;20217;-58
2023/04/02 02:41:08;;;;;;;1.03;0.43;;;;;;;7.52;100.00;96062.47;5065017;28;20201;-59
2023/04/02 02:43:39;;;;;;;0.43;0.20;;;;;;;7.49;100.00;96068.03;5070051;28;20198;-59
2023/04/02 02:46:09;;;;;;;0.37;0.30;;;;;;;7.42;100.00;96066.91;5065477;28;20195;-58
2023/04/02 02:48:37;;;;;;;0.40;0.40;;;;;;;7.42;100.00;96077.44;5065799;28;20219;-58
2023/04/02 02:51:09;;;;;;;0.20;0.20;;;;;;;7.42;100.00;96072.19;5046961;28;20202;-58
2023/04/02 02:53:45;;;;;;;0.20;0.20;;;;;;;7.40;100.00;96077.56;5044844;28;20203;-59
2023/04/02 02:56:13;;;;;;;2.07;0.43;;;;;;;7.40;100.00;96076.75;5043765;28;20215;-59
2023/04/02 02:58:41;;;;;;;0.77;0.20;;;;;;;7.35;100.00;96086.84;5043547;28;20228;-58
2023/04/02 03:01:08;;;;;;;0.37;0.30;;;;;;;7.34;100.00;96079.91;5043369;28;20203;-59
2023/04/02 03:03:34;;;;;;;0.30;0.30;;;;;;;7.36;100.00;96083.25;5042174;28;20221;-58
2023/04/02 03:06:06;;;;;;;0.63;0.40;;;;;;;7.42;100.00;96087.97;5043183;28;20295;-58
2023/04/02 03:08:39;;;;;;;0.37;0.37;;;;;;;7.41;100.00;96086.28;5043312;28;20214;-59
2023/04/02 03:11:10;;;;;;;0.30;0.30;;;;;;;7.36;100.00;96091.16;5043015;28;20203;-58
2023/04/02 03:13:38;;;;;;;0.33;0.33;;;;;;;7.46;100.00;96090.19;5042812;28;20199;-57
2023/04/02 03:16:13;;;;;;;0.57;0.57;;;;;;;7.40;100.00;96095.97;5043075;28;20207;-58
2023/04/02 03:18:46;;;;;;;1.27;0.23;;;;;;;7.52;100.00;96094.06;5042479;28;20199;-58
2023/04/02 03:21:20;;;;;;;0.43;0.43;;;;;;;7.47;100.00;96096.28;5042795;28;20250;-59
2023/04/02 03:23:50;;;;;;;0.40;0.40;;;;;;;7.43;100.00;96097.53;5042651;28;20187;-58
2023/04/02 03:26:19;;;;;;;0.30;0.30;;;;;;;7.37;100.00;96096.25;5043676;28;20203;-59
2023/04/02 03:28:50;;;;;;;0.30;0.30;;;;;;;7.39;100.00;96109.28;5042689;28;20230;-58
2023/04/02 03:31:20;;;;;;;0.13;0.10;;;;;;;7.38;100.00;96107.59;5042520;28;20627;-58
2023/04/02 03:33:50;;;;;;;1.40;0.20;;;;;;;7.38;100.00;96104.97;5041117;28;20231;-58
2023/04/02 03:36:27;;;;;;;0.53;0.37;;;;;;;7.37;100.00;96104.13;5042490;28;20204;-58
2023/04/02 03:38:57;;;;;;;0.20;0.20;;;;;;;7.36;100.00;96107.75;5043135;28;20207;-58
2023/04/02 03:41:28;;;;;;;0.60;0.30;;;;;;;7.36;100.00;96104.28;5043132;28;20656;-57
2023/04/02 03:43:56;;;;;;;0.20;0.20;;;;;;;7.40;100.00;96100.44;5043589;28;20188;-58
2023/04/02 03:46:25;;;;;;;0.77;0.33;;;;;;;7.41;100.00;96115.22;5045811;28;20210;-59
2023/04/02 03:48:56;;;;;;;0.27;0.27;;;;;;;7.36;100.00;96114.81;5047995;28;20235;-59
2023/04/02 03:51:28;;;;;;;0.50;0.30;;;;;;;7.31;100.00;96115.22;5046595;28;20214;-58
2023/04/02 03:53:55;;;;;;;0.20;0.20;;;;;;;7.27;100.00;96119.06;5047733;28;20206;-59
2023/04/02 03:56:30;;;;;;;0.23;0.23;;;;;;;7.29;100.00;96118.97;5057097;28;20199;-58
2023/04/02 03:59:05;;;;;;;0.60;0.57;;;;;;;7.31;100.00;96122.28;5047925;28;20186;-58
2023/04/02 04:01:35;;;;;;;0.67;0.30;;;;;;;7.30;100.00;96117.97;5043084;28;20236;-58
2023/04/02 04:04:04;;;;;;;0.83;0.70;;;;;;;7.34;100.00;96124.63;5042349;28;20202;-58
2023/04/02 04:06:35;;;;;;;0.60;0.60;;;;;;;7.35;100.00;96131.56;5042660;28;20215;-60
2023/04/02 04:09:09;;;;;;;0.33;0.33;;;;;;;7.31;100.00;96132.78;5041850;28;20542;-59
2023/04/02 04:11:38;;;;;;;0.73;0.50;;;;;;;7.34;100.00;96133.34;5042764;28;20209;-58
2023/04/02 04:14:12;;;;;;;0.37;0.30;;;;;;;7.34;100.00;96135.97;5041545;28;20658;-58
2023/04/02 04:16:42;;;;;;;0.57;0.57;;;;;;;7.31;100.00;96143.31;5042960;28;20211;-59
2023/04/02 04:19:16;;;;;;;1.30;0.40;;;;;;;7.28;100.00;96138.31;5046253;28;20248;-59
2023/04/02 04:21:46;;;;;;;0.90;0.30;;;;;;;7.26;100.00;96140.28;5046339;28;20260;-58
2023/04/02 04:24:20;;;;;;;0.93;0.27;;;;;;;7.25;100.00;96139.44;5044744;28;20215;-58
2023/04/02 04:26:53;;;;;;;1.07;0.53;;;;;;;7.20;100.00;96144.25;5045411;28;20299;-57
2023/04/02 04:29:31;;;;;;;0.30;0.30;;;;;;;7.14;100.00;96143.97;5045929;28;20250;-58
2023/04/02 04:32:15;;;;;;;0.40;0.27;;;;;;;7.15;100.00;96154.34;5046132;28;20207;-59
2023/04/02 04:34:45;;;;;;;0.67;0.40;;;;;;;7.14;100.00;96152.69;5045345;28;20677;-58
2023/04/02 04:37:23;;;;;;;0.33;0.33;;;;;;;7.14;100.00;96157.09;5045748;28;20722;-59
2023/04/02 04:39:56;;;;;;;0.67;0.20;;;;;;;7.22;100.00;96154.66;5045475;28;20256;-58
2023/04/02 04:42:25;;;;;;;0.43;0.20;;;;;;;7.19;100.00;96160.19;5045585;28;20278;-58
2023/04/02 04:44:56;;;;;;;1.23;0.30;;;;;;;7.21;100.00;96158.25;5045552;28;20204;-57
2023/04/02 04:47:27;;;;;;;1.23;0.83;;;;;;;7.20;100.00;96162.66;5046378;28;20210;-58
2023/04/02 04:49:56;;;;;;;1.57;0.40;;;;;;;7.22;100.00;96165.16;5044870;28;20207;-59
2023/04/02 04:52:26;;;;;;;0.43;0.43;;;;;;;7.25;100.00;96159.63;5045659;28;20213;-59
2023/04/02 04:54:53;;;;;;;1.30;0.47;;;;;;;7.33;100.00;96165.06;5046862;28;20195;-60
2023/04/02 04:57:31;;;;;;;1.50;0.33;;;;;;;7.32;100.00;96163.41;5068147;28;20196;-59
2023/04/02 05:00:05;;;;;;;0.40;0.20;;;;;;;7.31;100.00;96164.34;5064811;28;20187;-59
2023/04/02 05:02:36;;;;;;;0.40;0.40;;;;;;;7.30;100.00;96162.69;5045398;28;20624;-59
2023/04/02 05:05:03;;;;;;;0.27;0.27;;;;;;;7.36;100.00;96168.25;5045071;28;20639;-59
2023/04/02 05:07:36;;;;;;;0.70;0.40;;;;;;;7.42;100.00;96172.13;5044832;28;20211;-59
2023/04/02 05:10:08;;;;;;;0.80;0.40;;;;;;;7.41;100.00;96165.19;5046329;28;20223;-59
2023/04/02 05:12:38;;;;;;;0.87;0.60;;;;;;;7.46;100.00;96173.53;5051391;28;20272;-59
2023/04/02 05:15:10;;;;;;;0.83;0.50;;;;;;;7.48;100.00;96174.22;5067954;28;20211;-59
2023/04/02 05:17:43;;;;;;;0.27;0.27;;;;;;;7.49;100.00;96179.34;5066317;28;20175;-59
2023/04/02 05:20:15;;;;;;;0.30;0.30;;;;;;;7.47;100.00;96178.63;5048250;28;20230;-59
2023/04/02 05:22:49;;;;;;;0.30;0.30;;;;;;;7.46;100.00;96178.78;5045118;28;20635;-60
2023/04/02 05:25:20;;;;;;;0.30;0.23;;;;;;;7.52;100.00;96188.75;5044330;28;20527;-59
2023/04/02 05:27:52;;;;;;;0.60;0.60;;;;;;;7.56;100.00;96179.63;5044412;28;20207;-59
2023/04/02 05:31:05;;;;;;;0.40;0.40;;;;;;;7.59;100.00;96189.88;5044243;28;20346;-60
2023/04/02 05:33:34;;;;;;;0.50;0.50;;;;;;;7.59;100.00;96189.88;5044822;28;20244;-58
2023/04/02 05:36:07;;;;;;;0.60;0.60;;;;;;;7.60;100.00;96195.97;5046716;28;20198;-58
2023/04/02 05:38:45;;;;;;;0.60;0.60;;;;;;;7.60;100.00;96190.72;5047286;28;20634;-60
2023/04/02 05:41:25;;;;;;;0.53;0.53;;;;;;;7.62;100.00;96197.50;5046771;28;20223;-59
2023/04/02 05:44:02;;;;;;;0.50;0.50;;;;;;;7.63;100.00;96196.53;5044234;28;20194;-58
2023/04/02 05:46:36;;;;;;;1.07;0.50;;;;;;;7.65;100.00;96194.59;5026751;28;20202;-59
2023/04/02 05:49:05;;;;;;;0.43;0.43;;;;;;;7.69;100.00;96203.88;5044265;28;20226;-59
2023/04/02 05:51:38;;;;;;;1.43;0.50;;;;;;;7.70;100.00;96208.19;5044804;28;20199;-58
2023/04/02 05:54:16;;;;;;;0.77;0.30;;;;;;;7.74;100.00;96204.31;5044503;28;20199;-58
2023/04/02 05:56:44;;;;;;;0.40;0.37;;;;;;;7.80;100.00;96209.03;5044115;28;20666;-59
2023/04/02 05:59:18;;;;;;;1.20;0.20;;;;;;;7.85;100.00;96206.84;5044357;28;20553;-59
2023/04/02 06:01:51;;;;;;;0.50;0.50;;;;;;;7.87;100.00;96214.56;5043568;28;20291;-58
2023/04/02 06:04:26;;;;;;;0.30;0.30;;;;;;;7.91;100.00;96214.19;5042888;28;20795;-58
2023/04/02 06:07:05;;;;;;;0.60;0.60;;;;;;;7.98;100.00;96219.72;5044900;28;20207;-58
2023/04/02 06:09:39;;;;;;;0.30;0.30;;;;;;;8.04;100.00;96221.81;5043690;28;20215;-59
2023/04/02 06:12:16;;;;;;;0.47;0.47;;;;;;;8.13;100.00;96231.53;5044714;28;20844;-58
2023/04/02 06:14:43;;;;;;;0.60;0.40;;;;;;;8.19;100.00;96220.41;5044518;28;20368;-59
2023/04/02 06:17:13;;;;;;;0.53;0.40;;;;;;;8.34;100.00;96228.78;5044051;28;20651;-59
2023/04/02 06:19:41;;;;;;;0.43;0.40;;;;;;;8.38;100.00;96228.38;5043034;28;20242;-60
2023/04/02 06:22:13;;;;;;;1.20;0.97;;;;;;;8.44;100.00;96234.88;5043827;28;20211;-59
2023/04/02 06:24:41;;;;;;;0.30;0.30;;;;;;;8.53;100.00;96236.69;5043603;28;20233;-59
2023/04/02 06:27:10;;;;;;;1.90;0.37;;;;;;;8.63;98.32;96240.13;5044187;28;20203;-59
2023/04/02 06:29:41;;;;;;;0.50;0.40;;;;;;;8.74;96.83;96247.06;5043161;28;20247;-58
2023/04/02 06:32:08;;;;;;;0.90;0.30;;;;;;;8.93;96.12;96241.72;5043983;28;20223;-58
2023/04/02 06:34:38;;;;;;;0.23;0.23;;;;;;;9.93;93.22;96242.66;5043419;28;20678;-60
2023/04/02 06:37:17;;;;;;;0.30;0.30;;;;;;;10.75;85.59;96240.66;5043636;28;20223;-58
2023/04/02 06:39:45;;;;;;;0.40;0.27;;;;;;;11.42;81.86;96236.44;5042660;28;20199;-58
2023/04/02 06:42:14;;;;;;;0.30;0.23;;;;;;;11.78;79.54;96240.63;5043357;28;20527;-60
2023/04/02 06:44:41;;;;;;;0.40;0.40;;;;;;;11.93;77.11;96232.88;5044161;28;20199;-59
2023/04/02 06:47:16;;;;;;;0.90;0.40;;;;;;;12.02;76.44;96241.66;5051378;28;20218;-58
2023/04/02 06:49:45;;;;;;;0.40;0.30;;;;;;;12.60;73.92;96242.44;5049624;28;20228;-59
2023/04/02 06:52:17;;;;;;;0.40;0.40;;;;;;;12.65;73.07;96239.28;5049940;28;20636;-58
2023/04/02 06:54:46;;;;;;;0.30;0.23;;;;;;;12.30;74.72;96241.22;5043881;28;20207;-58
2023/04/02 06:57:13;;;;;;;1.87;0.40;;;;;;;12.06;74.56;96248.31;5051059;28;20198;-58
2023/04/02 06:59:40;;;;;;;0.40;0.40;;;;;;;11.85;76.91;96252.22;5068592;28;20256;-59
2023/04/02 07:02:31;;;;;;;0.30;0.30;;;;;;;11.56;75.52;96256.19;5065194;28;20183;-58
2023/04/02 07:05:01;;;;;;;0.30;0.30;;;;;;;11.26;77.04;96257.53;5065040;28;20192;-58
2023/04/02 07:07:27;;;;;;;0.27;0.27;;;;;;;11.09;77.65;96269.81;5064833;28;20218;-59
2023/04/02 07:09:58;;;;;;;0.40;0.40;;;;;;;10.90;77.02;96262.94;5063069;28;20331;-58
2023/04/02 07:12:26;;;;;;;0.77;0.30;;;;;;;10.74;78.96;96268.09;5064520;28;20192;-60
2023/04/02 07:14:53;;;;;;;0.43;0.33;;;;;;;10.57;80.54;96268.94;5045430;28;20210;-60
2023/04/02 07:17:23;;;;;;;0.77;0.37;;;;;;;10.47;81.53;96273.47;5045589;28;20222;-60
2023/04/02 07:19:51;;;;;;;1.40;0.40;;;;;;;10.41;81.63;96279.38;5045611;28;20238;-58
2023/04/02 07:22:18;;;;;;;0.60;0.43;;;;;;;10.38;84.49;96274.41;5044727;28;20691;-58
2023/04/02 07:24:48;;;;;;;0.40;0.37;;;;;;;10.32;85.47;96282.91;5041641;28;20303;-58
2023/04/02 07:27:16;;;;;;;0.20;0.20;;;;;;;10.31;82.35;96283.88;5043578;28;20208;-58
2023/04/02 07:29:44;;;;;;;0.20;0.20;;;;;;;10.22;84.53;96285.63;5043330;28;20305;-58
2023/04/02 07:32:12;;;;;;;0.87;0.40;;;;;;;10.32;84.03;96285.53;5043089;28;20195;-58
2023/04/02 07:34:41;;;;;;;0.37;0.37;;;;;;;10.44;82.92;96287.00;5042972;28;20199;-57
2023/04/02 07:37:10;;;;;;;0.50;0.30;;;;;;;10.50;82.24;96294.31;5043567;28;20203;-58
2023/04/02 07:39:38;;;;;;;1.63;0.40;;;;;;;10.62;82.54;96292.28;5042682;28;20717;-58
2023/04/02 07:42:06;;;;;;;0.67;0.40;;;;;;;10.81;80.96;96292.94;5042969;28;20619;-59
2023/04/02 07:44:36;;;;;;;0.43;0.40;;;;;;;11.00;80.91;96297.22;5042935;28;20199;-58
2023/04/02 07:47:03;;;;;;;0.50;0.33;;;;;;;11.36;81.24;96296.16;5042005;28;20231;-59
2023/04/02 07:49:30;;;;;;;0.33;0.33;;;;;;;11.40;78.22;96289.56;5042280;28;20227;-59
2023/04/02 07:51:57;;;;;;;0.57;0.30;;;;;;;11.65;77.99;96292.34;5046246;28;20235;-59
2023/04/02 07:54:26;;;;;;;0.53;0.40;;;;;;;11.87;75.84;96300.56;5046591;28;20227;-58
2023/04/02 07:56:52;;;;;;;0.87;0.67;;;;;;;11.82;74.92;96300.25;5047274;28;20231;-59
2023/04/02 07:59:19;;;;;;;0.33;0.30;;;;;;;11.83;74.32;96307.19;5047420;28;20233;-58
2023/04/02 08:01:49;;;;;;;0.83;0.30;;;;;;;11.82;74.14;96302.06;5046799;28;20214;-59
2023/04/02 08:04:18;;;;;;;0.20;0.20;;;;;;;11.90;75.02;96307.41;5047561;28;20554;-58
2023/04/02 08:06:46;;;;;;;1.07;0.30;;;;;;;12.09;75.80;96309.78;5049679;28;20234;-58
2023/04/02 08:09:12;;;;;;;0.77;0.40;;;;;;;12.09;73.31;96303.63;5063296;28;20241;-59
2023/04/02 08:11:41;;;;;;;0.60;0.50;;;;;;;11.81;73.32;96309.16;5062355;28;20218;-58
2023/04/02 08:14:07;;;;;;;0.43;0.33;;;;;;;11.72;75.15;96312.78;5056712;28;20191;-59
2023/04/02 08:16:44;;;;;;;0.40;0.40;;;;;;;11.82;75.12;96310.84;5050656;28;20212;-58
2023/04/02 08:19:12;;;;;;;0.30;0.10;;;;;;;11.77;73.98;96318.41;5047974;28;20246;-58
2023/04/02 08:21:39;;;;;;;0.30;0.30;;;;;;;11.76;75.20;96319.41;5048624;28;20512;-58
2023/04/02 08:24:08;;;;;;;0.53;0.40;;;;;;;11.86;77.61;96319.31;5047135;28;20291;-60
2023/04/02 08:26:35;;;;;;;0.37;0.37;;;;;;;11.99;76.47;96319.69;5046965;28;20211;-59
2023/04/02 08:29:02;;;;;;;0.70;0.70;;;;;;;12.03;75.23;96322.84;5046783;28;20505;-58
2023/04/02 08:31:29;;;;;;;0.50;0.40;;;;;;;12.13;74.05;96329.66;5046451;28;20234;-58
2023/04/02 08:33:58;;;;;;;1.40;0.50;;;;;;;12.15;72.13;96332.19;5045613;28;20223;-58
2023/04/02 08:36:29;;;;;;;0.63;0.50;;;;;;;12.17;73.37;96335.47;5046520;28;20207;-57
2023/04/02 08:38:56;;;;;;;0.40;0.40;;;;;;;12.33;75.54;96333.72;5048853;28;20200;-58
2023/04/02 08:41:26;;;;;;;0.60;0.30;;;;;;;12.78;72.07;96330.66;5054555;28;20206;-58
2023/04/02 08:44:08;;;;;;;1.03;0.30;;;;;;;13.34;72.44;96334.34;5074978;28;20189;-58
2023/04/02 08:46:41;;;;;;;0.73;0.43;;;;;;;12.93;69.68;96331.66;5068771;28;20259;-57
2023/04/02 08:49:12;;;;;;;0.60;0.43;;;;;;;12.94;71.36;96335.97;5070716;28;20931;-57
2023/04/02 08:51:41;;;;;;;0.60;0.37;;;;;;;12.73;72.72;96332.13;5048797;28;20211;-59
2023/04/02 08:54:16;;;;;;;0.47;0.47;;;;;;;12.80;70.67;96333.16;5048346;28;20200;-58
2023/04/02 08:56:45;;;;;;;1.07;0.50;;;;;;;12.56;72.40;96339.25;5065769;28;20202;-57
2023/04/02 08:59:21;;;;;;;0.37;0.37;;;;;;;12.95;72.26;96335.00;5047879;28;20203;-58
2023/04/02 09:01:55;;;;;;;0.50;0.50;;;;;;;13.21;70.92;96336.69;5051009;28;20199;-58
2023/04/02 09:04:23;;;;;;;0.60;0.50;;;;;;;13.03;71.60;96336.81;5068900;28;20180;-58
2023/04/02 09:06:57;;;;;;;0.70;0.50;;;;;;;13.20;69.63;96350.97;5070182;28;20211;-58
2023/04/02 09:09:25;;;;;;;0.77;0.50;;;;;;;13.10;68.50;96342.34;5054773;28;20252;-58
2023/04/02 09:11:54;;;;;;;1.60;1.50;;;;;;;13.79;70.22;96347.88;5046351;28;20199;-59
2023/04/02 09:14:27;;;;;;;0.90;0.90;;;;;;;13.95;67.05;96349.69;5049529;28;20271;-58
2023/04/02 09:16:55;;;;;;;0.83;0.40;;;;;;;14.32;67.70;96349.03;5051565;28;21573;-58
2023/04/02 09:19:27;;;;;;;0.40;0.30;;;;;;;14.23;67.31;96350.06;5056016;28;20244;-58
2023/04/02 09:22:06;;;;;;;0.47;0.40;;;;;;;14.54;67.43;96358.94;5047005;28;20207;-57
2023/04/02 09:24:33;;;;;;;1.50;0.40;;;;;;;15.21;67.09;96367.97;5049350;28;20195;-58
2023/04/02 09:27:00;;;;;;;0.83;0.50;;;;;;;15.63;63.93;96361.31;5045169;28;20212;-58
2023/04/02 09:29:52;;;;;;;0.38;0.38;;;;;;;15.71;64.85;96367.41;5045171;28;20201;-59
2023/04/02 09:32:26;;;;;;;0.30;0.28;;;;;;;15.47;61.42;96372.94;5029187;28;20207;-58
2023/04/02 09:35:05;;;;;;;0.63;0.50;;;;;;;14.69;64.67;96381.16;5044457;28;20548;-58
2023/04/02 09:37:34;;;;;;;0.40;0.40;;;;;;;14.07;66.96;96377.53;5045637;28;20318;-59
2023/04/02 09:40:15;;;;;;;0.60;0.47;;;;;;;13.91;66.67;96378.44;5047155;28;20223;-59
2023/04/02 09:42:42;;;;;;;0.40;0.40;;;;;;;14.12;66.55;96379.69;5050565;28;20274;-59
2023/04/02 09:45:20;;;;;;;1.07;0.67;;;;;;;14.51;64.96;96388.56;5054745;28;20218;-59
2023/04/02 09:47:47;;;;;;;0.73;0.60;;;;;;;14.71;67.69;96394.25;5054921;28;20207;-57
2023/04/02 09:50:19;;;;;;;0.87;0.43;;;;;;;14.29;63.52;96397.25;5046386;28;20218;-58
2023/04/02 09:52:47;;;;;;;0.63;0.63;;;;;;;13.82;67.44;96395.38;5044975;28;20199;-58
2023/04/02 09:55:24;;;;;;;1.53;0.50;;;;;;;13.83;68.28;96391.72;5044422;28;20353;-59
2023/04/02 09:57:52;;;;;;;0.80;0.47;;;;;;;14.90;65.54;96396.50;5044015;28;20227;-58
2023/04/02 10:00:21;;;;;;;1.50;0.40;;;;;;;15.68;64.81;96386.44;5044463;28;20206;-58
2023/04/02 10:03:03;;;;;;;2.05;0.57;;;;;;;16.21;61.00;96382.72;5043627;28;20208;-59
2023/04/02 10:05:30;;;;;;;0.93;0.50;;;;;;;16.12;59.47;96396.34;5045205;28;20226;-58
2023/04/02 10:08:07;;;;;;;0.30;0.30;;;;;;;16.27;59.23;96402.50;5044128;28;20195;-59
2023/04/02 10:10:39;;;;;;;2.40;0.47;;;;;;;16.70;58.86;96399.00;5043920;28;20309;-58
2023/04/02 10:13:08;;;;;;;0.22;0.22;;;;;;;16.92;56.37;96390.03;5044821;28;20207;-58
2023/04/02 10:15:38;;;;;;;0.10;0.10;;;;;;;17.73;57.07;96395.97;5043741;28;20204;-58
2023/04/02 10:18:11;;;;;;;1.13;0.80;;;;;;;17.95;54.77;96394.09;5044546;28;20208;-58
2023/04/02 10:20:41;;;;;;;0.30;0.30;;;;;;;18.54;54.44;96400.66;5043671;28;20235;-58
2023/04/02 10:23:14;;;;;;;0.43;0.40;;;;;;;18.52;51.57;96397.38;5044274;28;20225;-57
2023/04/02 10:25:45;;;;;;;0.98;0.80;;;;;;;18.56;53.54;96393.28;5043959;28;20204;-58
2023/04/02 10:28:18;;;;;;;0.60;0.60;;;;;;;18.70;54.69;96397.69;5043959;28;20290;-57
2023/04/02 10:30:53;;;;;;;0.43;0.43;;;;;;;18.40;53.84;96398.91;5044090;28;20325;-57
2023/04/02 10:33:23;;;;;;;0.82;0.30;;;;;;;18.73;52.02;96399.94;5043088;28;20531;-58
2023/04/02 10:35:58;;;;;;;0.68;0.20;;;;;;;18.47;51.47;96404.28;5042456;28;20203;-58
2023/04/02 10:38:37;;;;;;;0.50;0.50;;;;;;;17.96;50.23;96406.44;5043228;28;20196;-58
2023/04/02 10:41:11;;;;;;;1.02;0.93;;;;;;;17.94;54.01;96411.97;5043596;28;20217;-57
2023/04/02 10:44:06;;;;;;;0.85;0.57;;;;;;;18.06;52.94;96402.41;5043285;28;20203;-57
2023/04/02 10:46:36;;;;;;;0.90;0.90;;;;;;;17.87;51.41;96417.28;5042811;28;20451;-58
2023/04/02 10:49:10;;;;;;;0.88;0.88;;;;;;;18.46;52.07;96414.19;5043013;28;20203;-58
2023/04/02 10:51:42;;;;;;;1.10;1.00;;;;;;;18.35;54.77;96414.75;5044184;28;20671;-57
2023/04/02 10:54:38;;;;;;;1.65;0.63;;;;;;;18.70;52.66;96415.59;5042804;28;20202;-57
2023/04/02 10:57:09;;;;;;;1.20;0.77;;;;;;;18.73;49.70;96416.03;5041881;28;20303;-58
2023/04/02 10:59:38;;;;;;;1.10;0.70;;;;;;;18.65;52.38;96413.50;5043117;28;20199;-58
2023/04/02 11:02:23;;;;;;;0.98;0.50;;;;;;;18.85;50.21;96419.75;5042693;28;20200;-59
2023/04/02 11:04:52;;;;;;;1.85;1.10;;;;;;;18.87;49.47;96416.91;5043132;28;20217;-59
2023/04/02 11:07:22;;;;;;;0.30;0.30;;;;;;;18.54;51.29;96421.25;5043542;28;20203;-58
2023/04/02 11:09:52;;;;;;;0.85;0.50;;;;;;;18.59;51.28;96419.66;5043616;28;20215;-58
2023/04/02 11:12:22;;;;;;;0.73;0.73;;;;;;;18.16;52.56;96416.28;5045786;28;20667;-58
2023/04/02 11:14:50;;;;;;;0.38;0.20;;;;;;;18.57;49.67;96421.69;5045094;28;20552;-59
2023/04/02 11:17:17;;;;;;;0.88;0.85;;;;;;;18.70;48.19;96421.78;5042346;28;20207;-58
2023/04/02 11:19:44;;;;;;;0.52;0.40;;;;;;;18.22;50.58;96417.31;5042303;28;20301;-58
2023/04/02 11:22:16;;;;;;;0.60;0.40;;;;;;;18.34;48.02;96411.25;5042521;28;20534;-59
2023/04/02 11:24:51;;;;;;;0.30;0.25;;;;;;;18.50;49.75;96423.47;5043312;28;20235;-58
2023/04/02 11:27:25;;;;;;;0.10;0.10;;;;;;;17.80;49.08;96407.56;5043405;28;20218;-59
2023/04/02 11:30:03;;;;;;;0.32;0.30;;;;;;;17.65;51.81;96421.00;5043084;28;20202;-58
2023/04/02 11:32:35;;;;;;;1.10;0.77;;;;;;;17.92;53.33;96418.56;5042683;28;20748;-59
2023/04/02 11:35:25;;;;;;;0.43;0.20;;;;;;;17.21;52.01;96417.66;5043921;28;20305;-58
2023/04/02 11:37:55;;;;;;;1.05;0.95;;;;;;;16.55;51.54;96421.34;5044312;28;20910;-58
2023/04/02 11:40:43;;;;;;;0.38;0.38;;;;;;;16.27;53.68;96414.00;5041703;28;20206;-57
2023/04/02 11:43:51;;;;;;;0.25;0.25;;;;;;;15.63;57.43;96423.47;5043184;28;20226;-60
2023/04/02 11:46:45;;;;;;;0.85;0.82;;;;;;;15.28;56.17;96424.03;5042739;28;20204;-56
2023/04/02 11:49:34;;;;;;;0.40;0.40;;;;;;;14.93;57.90;96428.09;5043092;28;20268;-58
2023/04/02 11:52:01;;;;;;;0.73;0.35;;;;;;;14.85;58.50;96428.97;5056384;28;20234;-60
2023/04/02 11:54:36;;;;;;;1.27;0.50;;;;;;;14.82;59.85;96431.16;5054238;28;20219;-59
2023/04/02 11:57:16;;;;;;;0.60;0.57;;;;;;;14.69;62.23;96433.53;5054371;28;20186;-60